createdAt,value
2018-04-11T06:26:29.132Z,6.10
2018-04-11T06:27:29.734Z,6.60
2018-04-11T06:28:30.463Z,6.50
2018-04-11T06:29:31.069Z,6.80
2018-04-11T06:31:31.943Z,5.80
2018-04-11T06:32:32.652Z,6.00
2018-04-11T06:33:33.240Z,5.80
2018-04-11T06:34:34.079Z,6.00
2018-04-11T06:36:34.932Z,5.70
2018-04-11T06:38:35.827Z,5.20
2018-04-11T06:44:04.459Z,5.60
2018-04-11T06:45:05.043Z,5.70
2018-04-11T06:47:05.909Z,5.50
2018-04-11T06:48:06.570Z,5.60
2018-04-11T06:49:07.146Z,5.50
2018-04-11T06:50:07.770Z,5.50
2018-04-11T06:51:08.350Z,5.50
2018-04-11T06:52:09.021Z,5.60
2018-04-11T06:54:09.939Z,5.50
2018-04-11T06:55:43.232Z,3.90
2018-04-11T06:56:43.951Z,5.80
2018-04-11T06:57:44.540Z,5.30
2018-04-11T06:58:45.166Z,6.00
2018-04-11T06:59:45.762Z,5.30
2018-04-11T07:01:46.602Z,5.70
2018-04-11T07:03:47.528Z,5.30
2018-04-11T07:04:48.108Z,5.30
2018-04-11T07:05:48.725Z,5.10
2018-04-11T07:06:49.337Z,5.20
2018-04-11T07:07:49.923Z,4.80
2018-04-11T07:08:50.552Z,5.10
2018-04-11T07:09:51.185Z,4.90
2018-04-11T07:10:51.799Z,4.80
2018-04-11T07:11:52.370Z,5.00
2018-04-11T07:12:52.977Z,4.50
2018-04-11T07:14:53.931Z,5.10
2018-04-11T07:15:54.571Z,4.90
2018-04-11T07:16:55.146Z,4.90
2018-04-11T07:17:55.719Z,4.60
2018-04-11T07:18:56.293Z,4.80
2018-04-11T07:19:56.898Z,4.60
2018-04-11T07:20:57.488Z,4.60
2018-04-11T07:21:58.122Z,4.60
2018-04-11T07:22:58.770Z,4.30
2018-04-11T07:23:59.381Z,4.30
2018-04-11T07:24:59.985Z,4.50
2018-04-11T07:27:00.827Z,4.50
2018-04-11T07:29:01.689Z,4.20
2018-04-11T07:30:02.356Z,3.90
2018-04-11T07:31:02.918Z,3.30
2018-04-11T07:33:03.782Z,3.30
2018-04-11T07:34:04.401Z,3.30
2018-04-11T07:35:04.992Z,3.00
2018-04-11T07:36:05.553Z,3.40
2018-04-11T07:37:06.126Z,3.00
2018-04-11T07:38:06.731Z,3.10
2018-04-11T07:39:07.283Z,3.40
2018-04-11T07:40:07.933Z,3.30
2018-04-11T07:41:08.524Z,3.20
2018-04-11T07:42:09.172Z,3.10
2018-04-11T07:43:09.799Z,3.60
2018-04-11T07:44:10.414Z,3.30
2018-04-11T07:45:11.019Z,3.20
2018-04-11T07:46:11.628Z,3.20
2018-04-11T07:47:12.239Z,3.30
2018-04-11T07:48:12.811Z,3.40
2018-04-11T07:49:13.416Z,3.40
2018-04-11T07:50:14.663Z,3.80
2018-04-11T07:51:15.245Z,3.60
2018-04-11T07:52:15.850Z,3.90
2018-04-11T07:53:16.474Z,3.70
2018-04-11T07:54:17.199Z,3.70
2018-04-11T07:55:17.759Z,3.60
2018-04-11T07:56:18.357Z,3.60
2018-04-11T07:57:19.052Z,3.90
2018-04-11T07:58:19.637Z,3.50
2018-04-11T07:59:20.274Z,3.80
2018-04-11T08:00:20.914Z,3.70
2018-04-11T08:01:21.589Z,3.40
2018-04-11T08:02:22.158Z,3.50
2018-04-11T08:03:22.786Z,3.40
2018-04-11T08:04:23.348Z,3.60
2018-04-11T08:05:23.967Z,3.30
2018-04-11T08:06:24.565Z,3.40
2018-04-11T08:07:25.122Z,3.00
2018-04-11T08:08:25.727Z,3.40
2018-04-11T08:09:26.342Z,3.40
2018-04-11T08:10:27.017Z,3.30
2018-04-11T08:11:27.609Z,3.30
2018-04-11T08:12:28.185Z,3.50
2018-04-11T08:14:29.067Z,3.70
2018-04-11T08:15:29.654Z,3.60
2018-04-11T08:16:30.224Z,3.50
2018-04-11T08:17:30.801Z,3.70
2018-04-11T08:19:31.681Z,3.70
2018-04-11T08:20:32.265Z,3.50
2018-04-11T08:21:32.867Z,3.40
2018-04-11T08:22:33.490Z,3.50
2018-04-11T08:23:34.114Z,3.60
2018-04-11T08:24:34.695Z,3.80
2018-04-11T08:25:35.370Z,3.40
2018-04-11T08:26:35.927Z,3.20
2018-04-11T08:28:36.819Z,3.50
2018-04-11T08:29:37.417Z,3.90
2018-04-11T08:31:38.264Z,3.60
2018-04-11T08:32:38.921Z,3.80
2018-04-11T08:33:39.644Z,3.80
2018-04-11T08:34:40.221Z,3.70
2018-04-11T08:35:40.792Z,3.50
2018-04-11T08:36:41.400Z,3.90
2018-04-11T08:37:41.981Z,3.80
2018-04-11T08:38:42.556Z,3.70
2018-04-11T08:39:43.165Z,3.60
2018-04-11T08:41:44.042Z,3.80
2018-04-11T08:42:44.652Z,3.70
2018-04-11T08:43:45.222Z,3.60
2018-04-11T08:44:45.802Z,3.60
2018-04-11T08:45:46.401Z,3.60
2018-04-11T08:46:46.986Z,3.50
2018-04-11T08:47:47.571Z,3.40
2018-04-11T08:48:48.146Z,3.30
2018-04-11T08:49:48.736Z,3.50
2018-04-11T08:50:49.291Z,3.60
2018-04-11T08:51:49.918Z,3.60
2018-04-11T08:52:50.510Z,3.30
2018-04-11T08:53:51.088Z,3.50
2018-04-11T08:54:51.729Z,3.40
2018-04-11T08:55:52.313Z,3.30
2018-04-11T08:56:52.908Z,3.00
2018-04-11T08:57:53.489Z,3.00
2018-04-11T08:58:54.078Z,3.10
2018-04-11T08:59:54.696Z,3.20
2018-04-11T09:00:55.263Z,3.00
2018-04-11T09:01:55.836Z,2.90
2018-04-11T09:02:56.399Z,2.90
2018-04-11T09:03:57.009Z,3.00
2018-04-11T09:04:57.609Z,2.80
2018-04-11T09:05:58.271Z,2.80
2018-04-11T09:06:58.828Z,2.60
2018-04-11T09:07:59.418Z,2.80
2018-04-11T09:08:59.984Z,3.00
2018-04-11T09:10:00.647Z,2.50
2018-04-11T09:11:01.211Z,2.60
2018-04-11T09:12:01.764Z,2.80
2018-04-11T09:13:02.374Z,2.70
2018-04-11T09:23:49.462Z,2.60
2018-04-11T09:24:50.048Z,3.60
2018-04-11T09:25:50.611Z,3.40
2018-04-11T09:26:51.187Z,3.50
2018-04-11T09:27:52.637Z,3.50
2018-04-11T09:28:53.247Z,3.50
2018-04-11T09:29:53.843Z,3.30
2018-04-11T09:30:54.560Z,3.10
2018-04-11T09:31:55.307Z,3.10
2018-04-11T09:32:56.262Z,3.00
2018-04-11T09:33:56.938Z,3.10
2018-04-11T09:34:57.527Z,3.10
2018-04-11T09:35:58.147Z,3.00
2018-04-11T09:36:58.730Z,2.90
2018-04-11T09:37:59.297Z,3.00
2018-04-11T09:38:59.906Z,3.40
2018-04-11T09:40:00.547Z,3.20
2018-04-11T09:41:01.138Z,3.30
2018-04-11T09:42:01.736Z,3.30
2018-04-11T09:43:02.321Z,2.90
2018-04-11T09:44:02.901Z,2.80
2018-04-11T09:45:03.544Z,3.20
2018-04-11T09:46:04.114Z,2.80
2018-04-11T09:47:04.675Z,2.60
2018-04-11T09:48:05.285Z,2.70
2018-04-11T09:49:05.852Z,2.60
2018-04-11T09:50:06.450Z,2.70
2018-04-11T09:51:07.048Z,2.70
2018-04-11T09:52:07.634Z,2.80
2018-04-11T09:53:08.200Z,2.50
2018-04-11T09:54:08.816Z,2.00
2018-04-11T09:55:09.392Z,2.30
2018-04-11T09:57:10.218Z,2.40
2018-04-11T09:58:10.826Z,2.10
2018-04-11T09:59:11.394Z,2.30
2018-04-11T10:01:12.369Z,2.30
2018-04-11T10:02:12.925Z,2.40
2018-04-11T10:03:13.508Z,1.90
2018-04-11T10:04:14.110Z,2.30
2018-04-11T10:05:14.729Z,1.90
2018-04-11T10:07:15.594Z,2.00
2018-04-11T10:08:16.199Z,1.80
2018-04-11T10:09:16.776Z,1.80
2018-04-11T10:10:17.380Z,1.90
2018-04-11T10:11:17.999Z,1.70
2018-04-11T10:12:18.582Z,1.90
2018-04-11T10:13:19.156Z,1.80
2018-04-11T10:14:19.746Z,2.00
2018-04-11T10:15:20.333Z,1.90
2018-04-11T10:16:20.963Z,1.80
2018-04-11T10:17:21.518Z,1.90
2018-04-11T10:18:22.104Z,1.70
2018-04-11T10:19:22.707Z,1.60
2018-04-11T10:20:23.312Z,1.60
2018-04-11T10:21:23.902Z,1.90
2018-04-11T10:22:24.507Z,1.70
2018-04-11T10:23:25.070Z,1.70
2018-04-11T10:24:25.713Z,1.50
2018-04-11T10:25:26.267Z,1.80
2018-04-11T10:26:26.838Z,1.40
2018-04-11T10:27:27.450Z,1.30
2018-04-11T10:28:28.058Z,1.00
2018-04-11T10:29:28.828Z,0.90
2018-04-11T10:30:29.457Z,1.30
2018-04-11T10:31:30.127Z,1.50
2018-04-11T10:32:30.733Z,1.80
2018-04-11T10:33:31.355Z,1.50
2018-04-11T10:35:32.213Z,1.50
2018-04-11T10:36:32.773Z,1.50
2018-04-11T10:37:33.343Z,1.60
2018-04-11T10:39:34.200Z,1.20
2018-04-11T10:40:34.779Z,1.50
2018-04-11T10:41:35.413Z,1.60
2018-04-11T10:42:36.009Z,1.50
2018-04-11T10:43:36.596Z,1.20
2018-04-11T10:44:37.179Z,1.30
2018-04-11T10:45:37.763Z,1.40
2018-04-11T10:46:38.440Z,1.10
2018-04-11T10:47:39.028Z,1.70
2018-04-11T10:48:39.575Z,1.30
2018-04-11T10:49:40.166Z,1.30
2018-04-11T10:50:40.773Z,1.80
2018-04-11T10:51:41.364Z,1.60
2018-04-11T10:52:42.157Z,1.50
2018-04-11T10:53:42.992Z,1.80
2018-04-11T10:54:43.666Z,2.10
2018-04-11T10:55:44.312Z,2.20
2018-04-11T10:56:44.882Z,2.10
2018-04-11T10:57:45.604Z,2.00
2018-04-11T10:58:46.226Z,2.00
2018-04-11T10:59:46.835Z,1.80
2018-04-11T11:01:47.698Z,2.00
2018-04-11T11:02:48.315Z,2.50
2018-04-11T11:03:48.886Z,2.30
2018-04-11T11:04:49.521Z,2.30
2018-04-11T11:05:50.143Z,2.80
2018-04-11T11:06:50.712Z,2.90
2018-04-11T11:07:51.288Z,2.30
2018-04-11T11:08:52.595Z,2.70
2018-04-11T11:09:53.228Z,2.90
2018-04-11T11:10:53.873Z,2.70
2018-04-11T11:11:54.501Z,2.70
2018-04-11T11:12:55.104Z,2.80
2018-04-11T11:13:55.681Z,2.90
2018-04-11T11:14:56.298Z,2.60
2018-04-11T11:15:56.893Z,2.80
2018-04-11T11:16:57.468Z,2.40
2018-04-11T11:17:58.086Z,2.60
2018-04-11T11:18:58.665Z,2.60
2018-04-11T11:19:59.269Z,2.50
2018-04-11T11:20:59.886Z,2.60
2018-04-11T11:23:00.905Z,2.40
2018-04-11T11:24:01.481Z,2.10
2018-04-11T11:25:02.079Z,2.10
2018-04-11T11:26:02.668Z,1.90
2018-04-11T11:28:03.578Z,1.80
2018-04-11T11:29:04.237Z,1.70
2018-04-11T11:30:05.368Z,1.60
2018-04-11T11:31:05.970Z,1.70
2018-04-11T11:32:06.613Z,2.30
2018-04-11T11:33:07.211Z,2.30
2018-04-11T11:35:08.096Z,2.20
2018-04-11T11:37:09.038Z,2.20
2018-04-11T11:38:09.605Z,2.30
2018-04-11T11:39:10.213Z,2.30
2018-04-11T11:40:10.788Z,2.40
2018-04-11T11:41:11.399Z,2.50
2018-04-11T11:43:12.227Z,2.10
2018-04-11T11:44:12.917Z,2.10
2018-04-11T11:45:13.498Z,1.90
2018-04-11T11:47:14.349Z,2.20
2018-04-11T11:48:14.978Z,2.10
2018-04-11T11:49:15.541Z,2.10
2018-04-11T11:50:16.117Z,2.10
2018-04-11T11:52:17.010Z,1.80
2018-04-11T11:53:17.589Z,1.90
2018-04-11T11:54:18.181Z,2.10
2018-04-11T11:55:18.790Z,2.20
2018-04-11T11:56:19.410Z,2.10
2018-04-11T11:57:19.996Z,1.90
2018-04-11T11:58:20.665Z,2.00
2018-04-11T11:59:21.219Z,2.00
2018-04-11T12:00:21.806Z,2.50
2018-04-11T12:01:22.430Z,1.50
2018-04-11T12:02:23.022Z,1.20
2018-04-11T12:03:23.755Z,1.20
2018-04-11T12:05:24.595Z,1.40
2018-04-11T12:06:25.164Z,1.30
2018-04-11T12:07:25.819Z,1.10
2018-04-11T12:08:26.401Z,1.00
2018-04-11T12:09:26.994Z,1.30
2018-04-11T12:10:27.607Z,1.10
2018-04-11T12:11:28.214Z,1.20
2018-04-11T12:12:28.863Z,1.30
2018-04-11T12:14:29.712Z,1.40
2018-04-11T12:15:30.301Z,1.50
2018-04-11T12:16:30.944Z,1.50
2018-04-11T12:17:31.718Z,1.50
2018-04-11T12:18:32.324Z,1.50
2018-04-11T12:19:32.888Z,1.40
2018-04-11T12:20:33.452Z,1.20
2018-04-11T12:21:34.063Z,1.50
2018-04-11T12:22:34.621Z,1.30
2018-04-11T12:23:35.206Z,1.70
2018-04-11T12:24:35.809Z,1.30
2018-04-11T12:25:36.399Z,1.40
2018-04-11T12:26:37.036Z,1.40
2018-04-11T12:28:37.938Z,1.30
2018-04-11T12:29:38.506Z,1.20
2018-04-11T12:30:39.115Z,1.40
2018-04-11T12:31:39.744Z,1.40
2018-04-11T12:32:40.309Z,1.70
2018-04-11T12:33:40.915Z,1.40
2018-04-11T12:34:41.509Z,1.30
2018-04-11T12:35:42.829Z,1.60
2018-04-11T12:36:43.418Z,1.50
2018-04-11T12:37:44.050Z,1.50
2018-04-11T12:38:44.635Z,1.60
2018-04-11T12:40:45.512Z,1.80
2018-04-11T12:42:46.401Z,1.80
2018-04-11T12:43:46.957Z,1.90
2018-04-11T12:44:47.531Z,1.70
2018-04-11T12:45:48.097Z,1.80
2018-04-11T12:46:48.696Z,1.60
2018-04-11T12:47:49.295Z,1.70
2018-04-11T12:48:49.894Z,1.70
2018-04-11T12:49:50.512Z,1.70
2018-04-11T12:50:51.097Z,1.50
2018-04-11T12:51:51.723Z,2.10
2018-04-11T12:52:52.305Z,1.70
2018-04-11T12:54:53.191Z,1.60
2018-04-11T12:55:53.766Z,2.10
2018-04-11T12:56:54.531Z,1.70
2018-04-11T12:57:55.111Z,1.70
2018-04-11T12:58:55.690Z,1.70
2018-04-11T12:59:56.276Z,1.70
2018-04-11T13:00:56.870Z,2.00
2018-04-11T13:01:57.502Z,1.70
2018-04-11T13:02:58.083Z,1.70
2018-04-11T13:03:58.715Z,1.60
2018-04-11T13:04:59.274Z,1.70
2018-04-11T13:05:59.858Z,1.70
2018-04-11T13:07:00.450Z,1.60
2018-04-11T13:08:01.027Z,1.50
2018-04-11T13:09:01.648Z,1.70
2018-04-11T13:10:02.269Z,1.50
2018-04-11T13:11:02.846Z,1.40
2018-04-11T13:12:03.451Z,1.40
2018-04-11T13:13:04.043Z,1.40
2018-04-11T13:14:04.616Z,1.30
2018-04-11T13:15:05.274Z,1.30
2018-04-11T13:16:05.888Z,1.20
2018-04-11T13:17:06.502Z,1.20
2018-04-11T13:18:07.075Z,1.20
2018-04-11T13:19:07.685Z,1.30
2018-04-11T13:20:08.272Z,1.20
2018-04-11T13:21:08.867Z,1.40
2018-04-11T13:22:09.461Z,1.30
2018-04-11T13:23:10.047Z,1.20
2018-04-11T13:24:10.677Z,1.30
2018-04-11T13:25:11.248Z,1.40
2018-04-11T13:27:12.126Z,1.30
2018-04-11T13:28:12.748Z,1.10
2018-04-11T13:29:13.301Z,1.30
2018-04-11T13:30:13.863Z,1.60
2018-04-11T13:32:14.734Z,1.50
2018-04-11T13:33:15.314Z,2.10
2018-04-11T13:35:16.159Z,2.10
2018-04-11T13:36:16.810Z,2.00
2018-04-11T13:37:17.460Z,1.90
2018-04-11T13:38:18.034Z,2.10
2018-04-11T13:39:18.779Z,2.20
2018-04-11T13:40:19.376Z,1.90
2018-04-11T13:41:19.999Z,1.90
2018-04-11T13:42:20.632Z,2.10
2018-04-11T13:43:21.224Z,1.90
2018-04-11T13:44:21.860Z,1.80
2018-04-11T13:45:22.481Z,1.60
2018-04-11T13:46:23.103Z,1.50
2018-04-11T13:47:23.747Z,1.70
2018-04-11T13:48:24.327Z,3.10
2018-04-11T13:49:24.931Z,2.30
2018-04-11T13:50:25.517Z,2.60
2018-04-11T13:51:26.102Z,2.10
2018-04-11T13:52:26.667Z,2.10
2018-04-11T13:53:27.871Z,1.70
2018-04-11T13:54:28.430Z,1.80
2018-04-11T13:55:29.004Z,1.90
2018-04-11T13:56:29.577Z,1.70
2018-04-11T13:57:30.184Z,1.70
2018-04-11T13:58:30.800Z,1.50
2018-04-11T13:59:31.378Z,1.70
2018-04-11T14:00:31.974Z,1.40
2018-04-11T14:01:32.580Z,1.80
2018-04-11T14:02:33.240Z,1.80
2018-04-11T14:03:33.847Z,1.90
2018-04-11T14:04:34.401Z,1.80
2018-04-11T14:05:35.069Z,1.70
2018-04-11T14:06:35.649Z,1.70
2018-04-11T14:07:36.250Z,1.50
2018-04-11T14:08:36.843Z,1.60
2018-04-11T14:10:37.691Z,1.60
2018-04-11T14:11:38.341Z,1.60
2018-04-11T14:12:39.617Z,1.80
2018-04-11T14:13:40.211Z,1.50
2018-04-11T14:14:40.797Z,1.50
2018-04-11T14:15:41.421Z,1.30
2018-04-11T14:16:42.007Z,1.50
2018-04-11T14:17:42.696Z,1.60
2018-04-11T14:18:44.011Z,1.60
2018-04-11T14:19:44.601Z,1.60
2018-04-11T14:20:45.208Z,1.50
2018-04-11T14:21:45.843Z,2.00
2018-04-11T14:22:46.427Z,1.70
2018-04-11T14:23:47.007Z,1.70
2018-04-11T14:24:47.561Z,1.50
2018-04-11T14:25:48.186Z,1.40
2018-04-11T14:26:49.479Z,1.60
2018-04-11T14:27:50.114Z,1.30
2018-04-11T14:28:50.706Z,1.50
2018-04-11T14:29:51.308Z,1.90
2018-04-11T14:30:51.874Z,1.40
2018-04-11T14:31:52.463Z,1.50
2018-04-11T14:32:53.051Z,1.20
2018-04-11T14:33:53.636Z,1.40
2018-04-11T14:34:54.215Z,3.90
2018-04-11T14:35:54.786Z,2.30
2018-04-11T14:36:55.386Z,1.60
2018-04-11T14:37:56.029Z,2.00
2018-04-11T14:38:56.628Z,1.40
2018-04-11T14:39:57.789Z,2.10
2018-04-11T14:40:58.379Z,1.80
2018-04-11T14:41:58.991Z,1.80
2018-04-11T14:42:59.618Z,1.40
2018-04-11T14:44:00.241Z,1.60
2018-04-11T14:45:00.804Z,1.40
2018-04-11T14:46:01.426Z,1.30
2018-04-11T14:47:02.551Z,1.40
2018-04-11T14:48:03.150Z,1.70
2018-04-11T14:49:03.777Z,1.90
2018-04-11T14:50:04.375Z,1.70
2018-04-11T14:51:05.656Z,1.90
2018-04-11T14:52:06.244Z,2.10
2018-04-11T14:53:06.824Z,1.70
2018-04-11T14:54:07.412Z,1.70
2018-04-11T14:55:08.019Z,1.80
2018-04-11T14:56:08.630Z,1.60
2018-04-11T14:57:09.220Z,1.60
2018-04-11T14:58:09.822Z,1.90
2018-04-11T14:59:10.406Z,1.90
2018-04-11T15:01:11.291Z,1.80
2018-04-11T15:02:11.850Z,2.00
2018-04-11T15:03:12.426Z,1.70
2018-04-11T15:04:13.015Z,1.80
2018-04-11T15:05:13.602Z,2.10
2018-04-11T15:06:14.172Z,1.90
2018-04-11T15:07:14.770Z,1.70
2018-04-11T15:08:15.360Z,1.90
2018-04-11T15:09:15.985Z,2.10
2018-04-11T15:10:16.560Z,1.90
2018-04-11T15:11:17.141Z,1.90
2018-04-11T15:12:17.834Z,1.80
2018-04-11T15:13:18.461Z,2.10
2018-04-11T15:14:19.105Z,2.20
2018-04-11T15:15:19.737Z,2.10
2018-04-11T15:16:20.309Z,2.10
2018-04-11T15:17:20.944Z,2.30
2018-04-11T15:18:21.533Z,2.20
2018-04-11T15:19:22.112Z,2.80
2018-04-11T15:20:22.663Z,3.20
2018-04-11T15:21:23.289Z,2.70
2018-04-11T15:22:23.877Z,3.30
2018-04-11T15:23:24.512Z,3.10
2018-04-11T15:24:25.080Z,2.90
2018-04-11T15:25:25.666Z,2.70
2018-04-11T15:26:26.232Z,2.90
2018-04-11T15:27:26.835Z,3.00
2018-04-11T15:28:27.437Z,3.20
2018-04-11T15:29:28.066Z,3.20
2018-04-11T15:30:28.670Z,3.40
2018-04-11T15:31:29.254Z,3.40
2018-04-11T15:32:29.860Z,3.40
2018-04-11T15:33:30.438Z,3.30
2018-04-11T15:34:31.026Z,3.70
2018-04-11T15:35:31.693Z,3.20
2018-04-11T15:36:32.551Z,3.50
2018-04-11T15:37:33.108Z,3.10
2018-04-11T15:38:33.707Z,3.30
2018-04-11T15:39:34.314Z,3.00
2018-04-11T15:40:34.920Z,3.50
2018-04-11T15:41:35.515Z,3.40
2018-04-11T15:42:36.181Z,3.20
2018-04-11T15:43:36.804Z,3.20
2018-04-11T15:44:37.421Z,3.40
2018-04-11T15:45:38.023Z,3.20
2018-04-11T15:46:38.700Z,3.50
2018-04-11T15:47:39.303Z,3.80
2018-04-11T15:49:40.745Z,3.90
2018-04-11T15:51:41.691Z,3.50
2018-04-11T15:52:42.271Z,3.70
2018-04-11T15:53:42.849Z,3.60
2018-04-11T15:55:44.584Z,3.40
2018-04-11T15:56:45.172Z,3.40
2018-04-11T15:57:45.735Z,3.20
2018-04-11T15:58:46.310Z,3.30
2018-04-11T15:59:46.893Z,3.50
2018-04-11T16:00:47.466Z,3.70
2018-04-11T16:01:48.025Z,3.50
2018-04-11T16:02:48.660Z,3.60
2018-04-11T16:03:49.257Z,3.40
2018-04-11T16:04:49.875Z,3.30
2018-04-11T16:05:50.529Z,3.50
2018-04-11T16:06:51.099Z,3.60
2018-04-11T16:08:51.939Z,3.60
2018-04-11T16:09:52.520Z,3.60
2018-04-11T16:10:53.100Z,3.50
2018-04-11T16:12:53.968Z,3.60
2018-04-11T16:13:54.539Z,3.50
2018-04-11T16:14:55.159Z,3.70
2018-04-11T16:15:55.720Z,3.50
2018-04-11T16:16:56.367Z,3.50
2018-04-11T16:17:56.989Z,4.00
2018-04-11T16:18:57.600Z,4.20
2018-04-11T16:19:58.193Z,3.70
2018-04-11T16:20:58.771Z,3.70
2018-04-11T16:21:59.382Z,3.40
2018-04-11T16:23:00.092Z,3.40
2018-04-11T16:24:00.656Z,3.40
2018-04-11T16:25:01.274Z,3.20
2018-04-11T16:26:01.883Z,2.90
2018-04-11T16:28:02.747Z,2.60
2018-04-11T16:29:03.328Z,2.30
2018-04-11T16:30:03.954Z,2.30
2018-04-11T16:31:04.532Z,2.30
2018-04-11T16:32:05.835Z,2.50
2018-04-11T16:33:06.462Z,2.30
2018-04-11T16:34:07.036Z,2.60
2018-04-11T16:35:07.600Z,2.20
2018-04-11T16:36:08.189Z,2.30
2018-04-11T16:37:08.779Z,2.40
2018-04-11T16:39:09.645Z,2.30
2018-04-11T16:40:10.423Z,2.50
2018-04-11T16:41:11.058Z,2.30
2018-04-11T16:42:11.647Z,2.20
2018-04-11T16:43:12.261Z,2.40
2018-04-11T16:44:12.906Z,2.40
2018-04-11T16:45:13.569Z,2.70
2018-04-11T16:46:14.267Z,2.80
2018-04-11T16:47:14.844Z,3.40
2018-04-11T16:48:15.435Z,3.40
2018-04-11T16:49:16.075Z,3.40
2018-04-11T16:50:16.654Z,2.80
2018-04-11T16:51:17.214Z,2.70
2018-04-11T16:52:17.804Z,2.20
2018-04-11T16:54:18.737Z,2.20
2018-04-11T16:55:19.347Z,2.30
2018-04-11T16:56:19.928Z,2.20
2018-04-11T16:57:20.526Z,2.60
2018-04-11T16:58:21.156Z,2.40
2018-04-11T16:59:21.765Z,2.40
2018-04-11T17:00:22.380Z,2.30
2018-04-11T17:01:22.938Z,2.60
2018-04-11T17:02:23.536Z,2.30
2018-04-11T17:03:24.148Z,2.30
2018-04-11T17:04:24.740Z,2.30
2018-04-11T17:05:25.334Z,2.60
2018-04-11T17:06:25.921Z,2.60
2018-04-11T17:07:26.501Z,2.40
2018-04-11T17:08:27.083Z,2.50
2018-04-11T17:09:27.690Z,2.30
2018-04-11T17:10:28.313Z,2.40
2018-04-11T17:11:28.977Z,2.40
2018-04-11T17:12:29.614Z,2.50
2018-04-11T17:13:30.211Z,2.20
2018-04-11T17:15:31.085Z,2.40
2018-04-11T17:16:31.653Z,2.40
2018-04-11T17:17:32.232Z,2.40
2018-04-11T17:18:32.827Z,2.40
2018-04-11T17:19:33.521Z,2.40
2018-04-11T17:20:34.145Z,2.30
2018-04-11T17:21:34.722Z,2.60
2018-04-11T17:22:35.343Z,2.20
2018-04-11T17:23:36.017Z,2.20
2018-04-11T17:24:36.599Z,2.50
2018-04-11T17:26:38.577Z,2.30
2018-04-11T17:27:39.155Z,2.20
2018-04-11T17:28:39.849Z,2.30
2018-04-11T17:29:40.460Z,2.40
2018-04-11T17:31:41.335Z,2.20
2018-04-11T17:32:41.921Z,2.60
2018-04-11T17:33:42.492Z,2.50
2018-04-11T17:34:43.097Z,2.50
2018-04-11T17:35:43.779Z,2.60
2018-04-11T17:36:44.385Z,2.60
2018-04-11T17:37:45.341Z,2.50
2018-04-11T17:38:45.967Z,2.50
2018-04-11T17:39:46.607Z,7.80
2018-04-11T17:40:47.280Z,6.70
2018-04-11T17:41:47.869Z,5.70
2018-04-11T17:42:49.169Z,3.80
2018-04-11T17:43:50.572Z,3.50
2018-04-11T17:44:51.152Z,3.20
2018-04-11T17:45:51.738Z,3.00
2018-04-11T17:46:52.314Z,2.90
2018-04-11T17:47:52.895Z,2.60
2018-04-11T17:48:53.486Z,2.90
2018-04-11T17:51:10.568Z,1.90
2018-04-11T17:52:11.289Z,2.60
2018-04-11T17:55:23.519Z,2.20
2018-04-11T17:57:56.003Z,2.80
2018-04-11T17:58:56.635Z,2.50
